createdAt,value
2023-02-25T00:01:07.263Z,3.92
2023-02-25T00:03:37.636Z,3.91
2023-02-25T00:06:08.457Z,4.07
2023-02-25T00:08:39.110Z,4.12
2023-02-25T00:11:10.514Z,4.03
2023-02-25T00:13:44.843Z,4.10
2023-02-25T00:16:16.396Z,4.06
2023-02-25T00:18:47.191Z,4.00
2023-02-25T00:21:18.702Z,4.06
2023-02-25T00:23:50.621Z,4.03
2023-02-25T00:26:22.054Z,3.99
2023-02-25T00:28:54.939Z,4.02
2023-02-25T00:31:27.255Z,4.08
2023-02-25T00:33:57.548Z,3.97
2023-02-25T00:36:29.454Z,3.95
2023-02-25T00:39:00.439Z,3.92
2023-02-25T00:41:31.914Z,4.03
2023-02-25T00:44:06.149Z,4.11
2023-02-25T00:46:36.735Z,4.11
2023-02-25T00:49:06.853Z,4.17
2023-02-25T00:51:37.226Z,4.14
2023-02-25T00:54:07.702Z,4.13
2023-02-25T00:56:38.072Z,4.22
2023-02-25T00:59:10.968Z,4.26
2023-02-25T01:01:41.235Z,4.15
2023-02-25T01:04:11.707Z,4.23
2023-02-25T01:06:41.946Z,4.25
2023-02-25T01:09:14.189Z,4.18
2023-02-25T01:11:47.513Z,4.06
2023-02-25T01:14:23.668Z,4.06
2023-02-25T01:16:56.297Z,4.00
2023-02-25T01:19:28.466Z,4.07
2023-02-25T01:22:00.276Z,4.21
2023-02-25T01:24:31.688Z,4.04
2023-02-25T01:27:03.364Z,4.04
2023-02-25T01:29:39.445Z,4.20
2023-02-25T01:32:12.168Z,4.16
2023-02-25T01:34:42.957Z,4.27
2023-02-25T01:37:13.326Z,4.22
2023-02-25T01:39:43.547Z,4.22
2023-02-25T01:42:16.936Z,4.15
2023-02-25T01:45:25.571Z,4.05
2023-02-25T01:48:01.524Z,4.03
2023-02-25T01:50:37.156Z,3.96
2023-02-25T01:53:08.953Z,4.05
2023-02-25T01:55:39.798Z,3.93
2023-02-25T01:58:11.073Z,4.05
2023-02-25T02:00:42.120Z,4.19
2023-02-25T02:03:18.734Z,4.17
2023-02-25T02:05:57.277Z,4.17
2023-02-25T02:08:27.831Z,4.04
2023-02-25T02:10:59.238Z,4.01
2023-02-25T02:13:29.436Z,4.03
2023-02-25T02:16:12.382Z,3.96
2023-02-25T02:18:49.873Z,4.08
2023-02-25T02:21:38.082Z,4.03
2023-02-25T02:24:32.652Z,4.21
2023-02-25T02:27:05.398Z,4.34
2023-02-25T02:30:01.580Z,4.27
2023-02-25T02:32:39.925Z,4.06
2023-02-25T02:35:18.624Z,4.12
2023-02-25T02:37:57.633Z,4.04
2023-02-25T02:40:41.246Z,4.16
2023-02-25T02:43:22.539Z,4.05
2023-02-25T02:45:57.364Z,4.05
2023-02-25T02:48:34.741Z,4.03
2023-02-25T02:51:07.352Z,3.96
2023-02-25T02:53:40.364Z,3.87
2023-02-25T02:56:12.711Z,3.82
2023-02-25T02:58:46.311Z,3.70
2023-02-25T03:01:19.559Z,3.74
2023-02-25T03:03:59.937Z,3.73
2023-02-25T03:06:34.806Z,3.63
2023-02-25T03:09:09.214Z,3.56
2023-02-25T03:11:39.286Z,3.55
2023-02-25T03:14:10.348Z,3.43
2023-02-25T03:16:42.621Z,3.40
2023-02-25T03:19:19.253Z,3.38
2023-02-25T03:21:52.530Z,3.35
2023-02-25T03:24:28.563Z,3.43
2023-02-25T03:26:58.970Z,3.44
2023-02-25T03:29:31.440Z,3.47
2023-02-25T03:32:06.437Z,3.55
2023-02-25T03:34:41.708Z,3.58
2023-02-25T03:37:17.632Z,3.60
2023-02-25T03:39:51.956Z,3.60
2023-02-25T03:42:24.638Z,3.65
2023-02-25T03:44:56.799Z,3.69
2023-02-25T03:47:28.881Z,3.74
2023-02-25T03:50:04.918Z,3.64
2023-02-25T03:52:35.406Z,3.61
2023-02-25T03:55:12.794Z,3.66
2023-02-25T03:57:44.892Z,3.62
2023-02-25T04:00:20.085Z,3.65
2023-02-25T04:02:50.655Z,3.64
2023-02-25T04:05:25.145Z,3.68
2023-02-25T04:07:55.280Z,3.81
2023-02-25T04:10:25.696Z,3.86
2023-02-25T04:12:55.982Z,3.72
2023-02-25T04:15:29.056Z,3.71
2023-02-25T04:17:59.116Z,3.82
2023-02-25T04:20:33.086Z,3.72
2023-02-25T04:23:03.796Z,3.52
2023-02-25T04:25:33.922Z,3.47
2023-02-25T04:28:03.988Z,3.50
2023-02-25T04:30:34.559Z,3.51
2023-02-25T04:33:04.757Z,3.56
2023-02-25T04:35:37.414Z,3.56
2023-02-25T04:38:09.241Z,3.48
2023-02-25T04:40:40.129Z,3.43
2023-02-25T04:43:10.231Z,3.45
2023-02-25T04:45:40.281Z,3.45
2023-02-25T04:48:10.390Z,3.53
2023-02-25T04:50:43.041Z,3.65
2023-02-25T04:53:13.141Z,3.79
2023-02-25T04:55:43.203Z,3.72
2023-02-25T04:58:13.397Z,3.76
2023-02-25T05:00:49.383Z,3.64
2023-02-25T05:03:19.459Z,3.52
2023-02-25T05:05:52.162Z,3.56
2023-02-25T05:08:22.817Z,3.64
2023-02-25T05:10:53.438Z,3.58
2023-02-25T05:13:23.956Z,3.64
2023-02-25T05:15:54.634Z,3.76
2023-02-25T05:18:24.728Z,3.65
2023-02-25T05:20:57.405Z,3.69
2023-02-25T05:23:27.610Z,3.72
2023-02-25T05:25:58.907Z,3.81
2023-02-25T05:28:29.159Z,3.79
2023-02-25T05:30:59.368Z,3.70
2023-02-25T05:33:29.977Z,3.69
2023-02-25T05:36:02.701Z,3.71
2023-02-25T05:38:32.748Z,3.64
2023-02-25T05:41:03.235Z,3.65
2023-02-25T05:43:33.267Z,3.60
2023-02-25T05:46:05.016Z,3.61
2023-02-25T05:48:35.703Z,3.62
2023-02-25T05:51:09.627Z,3.59
2023-02-25T05:53:40.700Z,3.53
2023-02-25T05:56:13.612Z,3.53
2023-02-25T05:58:43.855Z,3.43
2023-02-25T06:01:16.109Z,3.47
2023-02-25T06:03:47.126Z,3.51
2023-02-25T06:06:23.659Z,3.47
2023-02-25T06:08:54.070Z,3.55
2023-02-25T06:11:27.600Z,3.61
2023-02-25T06:13:58.621Z,3.63
2023-02-25T06:16:32.317Z,3.66
2023-02-25T06:19:03.784Z,3.70
2023-02-25T06:21:37.452Z,3.68
2023-02-25T06:24:08.303Z,3.69
2023-02-25T06:26:41.980Z,3.77
2023-02-25T06:29:12.504Z,3.66
2023-02-25T06:31:43.463Z,3.66
2023-02-25T06:34:13.712Z,3.69
2023-02-25T06:36:46.682Z,3.80
2023-02-25T06:39:16.817Z,3.76
2023-02-25T06:41:47.033Z,3.80
2023-02-25T06:44:17.137Z,3.81
2023-02-25T06:46:47.306Z,3.80
2023-02-25T06:49:17.357Z,3.71
2023-02-25T06:51:50.001Z,3.68
2023-02-25T06:54:20.606Z,3.62
2023-02-25T06:56:50.688Z,3.62
2023-02-25T06:59:20.742Z,3.69
2023-02-25T07:01:50.859Z,3.61
2023-02-25T07:04:22.075Z,3.67
2023-02-25T07:06:54.838Z,3.64
2023-02-25T07:09:24.855Z,3.61
2023-02-25T07:11:55.177Z,3.62
2023-02-25T07:14:25.213Z,3.71
2023-02-25T07:16:55.784Z,3.70
2023-02-25T07:19:25.855Z,3.67
2023-02-25T07:21:58.554Z,3.69
2023-02-25T07:24:28.608Z,3.71
2023-02-25T07:26:58.748Z,3.71
2023-02-25T07:29:29.093Z,3.69
2023-02-25T07:32:00.206Z,3.66
2023-02-25T07:34:30.498Z,3.68
2023-02-25T07:37:03.157Z,3.69
2023-02-25T07:39:33.253Z,3.62
2023-02-25T07:42:03.418Z,3.61
2023-02-25T07:44:34.106Z,3.60
2023-02-25T07:47:04.238Z,3.59
2023-02-25T07:49:34.274Z,3.57
2023-02-25T07:52:07.637Z,3.50
2023-02-25T07:54:37.765Z,3.45
2023-02-25T07:57:07.849Z,3.46
2023-02-25T07:59:37.924Z,3.42
2023-02-25T08:02:10.409Z,3.47
2023-02-25T08:04:40.938Z,3.44
2023-02-25T08:07:13.795Z,3.43
2023-02-25T08:09:44.669Z,3.43
2023-02-25T08:12:14.798Z,3.29
2023-02-25T08:14:45.917Z,3.28
2023-02-25T08:17:16.507Z,3.21
2023-02-25T08:19:46.539Z,3.26
2023-02-25T08:22:19.263Z,3.26
2023-02-25T08:24:49.345Z,3.24
2023-02-25T08:27:19.861Z,3.26
2023-02-25T08:29:49.969Z,3.23
2023-02-25T08:32:20.227Z,3.27
2023-02-25T08:34:50.772Z,3.26
2023-02-25T08:37:25.771Z,3.26
2023-02-25T08:39:58.238Z,3.22
2023-02-25T08:42:28.313Z,3.20
2023-02-25T08:44:58.347Z,3.26
2023-02-25T08:47:29.535Z,3.28
2023-02-25T08:50:00.775Z,3.29
2023-02-25T08:52:33.901Z,3.40
2023-02-25T08:55:04.391Z,3.45
2023-02-25T08:57:34.611Z,3.46
2023-02-25T09:00:06.286Z,3.49
2023-02-25T09:02:36.734Z,3.53
2023-02-25T09:05:07.114Z,3.52
2023-02-25T09:07:39.945Z,3.61
2023-02-25T09:10:12.983Z,3.52
2023-02-25T09:12:44.370Z,3.48
2023-02-25T09:15:15.108Z,3.45
2023-02-25T09:17:45.536Z,3.48
2023-02-25T09:20:18.157Z,3.51
2023-02-25T09:22:50.928Z,3.60
2023-02-25T09:25:21.221Z,3.69
2023-02-25T09:27:51.277Z,3.67
2023-02-25T09:30:21.514Z,3.75
2023-02-25T09:32:52.019Z,3.64
2023-02-25T09:35:22.226Z,3.57
2023-02-25T09:37:54.869Z,3.65
2023-02-25T09:40:25.584Z,3.72
2023-02-25T09:43:08.126Z,3.76
2023-02-25T09:45:38.827Z,3.72
2023-02-25T09:48:18.807Z,3.62
2023-02-25T09:50:52.267Z,3.51
2023-02-25T09:53:29.071Z,3.44
2023-02-25T09:55:59.363Z,3.46
2023-02-25T09:58:34.944Z,3.60
2023-02-25T10:01:09.946Z,3.69
2023-02-25T10:03:50.919Z,3.58
2023-02-25T10:06:25.251Z,3.42
2023-02-25T10:09:07.002Z,3.54
2023-02-25T10:11:46.608Z,3.58
2023-02-25T10:14:28.552Z,3.59
2023-02-25T10:17:05.861Z,3.61
2023-02-25T10:19:45.754Z,3.58
2023-02-25T10:22:45.054Z,3.50
2023-02-25T10:25:22.078Z,3.52
2023-02-25T10:27:55.797Z,3.54
2023-02-25T10:30:28.271Z,3.55
2023-02-25T10:32:59.270Z,3.58
2023-02-25T10:35:31.616Z,3.61
2023-02-25T10:38:02.171Z,3.66
2023-02-25T10:40:35.003Z,3.67
2023-02-25T10:43:18.000Z,3.67
2023-02-25T10:45:49.460Z,3.58
2023-02-25T10:48:24.041Z,3.47
2023-02-25T10:51:12.357Z,3.36
2023-02-25T10:53:42.775Z,3.33
2023-02-25T10:56:15.563Z,3.40
2023-02-25T10:58:48.462Z,3.42
2023-02-25T11:01:21.549Z,3.45
2023-02-25T11:03:59.125Z,3.41
2023-02-25T11:06:32.494Z,3.34
2023-02-25T11:09:03.670Z,3.30
2023-02-25T11:11:38.899Z,3.33
2023-02-25T11:14:13.136Z,3.35
2023-02-25T11:16:44.723Z,3.36
2023-02-25T11:19:18.354Z,3.40
2023-02-25T11:21:49.467Z,3.42
2023-02-25T11:24:21.466Z,3.40
2023-02-25T11:26:55.323Z,3.40
2023-02-25T11:29:29.282Z,3.45
2023-02-25T11:32:04.662Z,3.46
2023-02-25T11:34:35.423Z,3.37
2023-02-25T11:37:26.700Z,3.38
2023-02-25T11:39:59.345Z,3.36
2023-02-25T11:42:33.013Z,3.27
2023-02-25T11:45:04.476Z,3.18
2023-02-25T11:47:36.034Z,3.21
2023-02-25T11:50:24.226Z,3.23
2023-02-25T11:53:02.861Z,3.23
2023-02-25T11:55:46.996Z,3.28
2023-02-25T11:58:27.784Z,3.23
2023-02-25T12:01:02.347Z,3.24
2023-02-25T12:03:50.079Z,3.25
2023-02-25T12:06:29.498Z,3.29
2023-02-25T12:09:37.198Z,3.34
2023-02-25T12:12:41.602Z,3.50
2023-02-25T12:15:44.981Z,3.54
2023-02-25T12:18:52.121Z,3.52
2023-02-25T12:21:51.675Z,3.57
2023-02-25T12:24:39.827Z,3.52
2023-02-25T12:27:52.595Z,3.53
2023-02-25T12:30:47.742Z,3.60
2023-02-25T12:33:26.621Z,3.46
2023-02-25T12:36:08.697Z,3.44
2023-02-25T12:39:10.827Z,3.38
2023-02-25T12:41:45.999Z,3.32
2023-02-25T12:44:49.984Z,3.35
2023-02-25T12:47:39.359Z,3.39
2023-02-25T12:50:45.590Z,3.40
2023-02-25T12:53:34.058Z,3.31
2023-02-25T12:56:42.991Z,3.20
2023-02-25T12:59:36.905Z,3.04
2023-02-25T13:02:39.721Z,3.07
2023-02-25T13:05:26.139Z,3.10
2023-02-25T13:08:10.113Z,3.10
2023-02-25T13:10:52.119Z,3.29
2023-02-25T13:13:56.932Z,3.52
2023-02-25T13:16:35.641Z,3.76
2023-02-25T13:19:22.109Z,4.00
2023-02-25T13:22:04.612Z,4.22
2023-02-25T13:24:47.421Z,4.44
2023-02-25T13:27:36.606Z,4.66
2023-02-25T13:30:27.583Z,4.83
2023-02-25T13:33:20.011Z,5.04
2023-02-25T13:35:57.591Z,4.98
2023-02-25T13:38:36.832Z,4.83
2023-02-25T13:41:22.305Z,4.61
2023-02-25T13:44:15.166Z,4.36
2023-02-25T13:47:03.041Z,4.43
2023-02-25T13:50:04.244Z,4.35
2023-02-25T13:52:39.219Z,4.22
2023-02-25T13:55:30.386Z,4.10
2023-02-25T13:58:25.304Z,4.02
2023-02-25T14:01:07.663Z,4.09
2023-02-25T14:04:08.484Z,4.25
2023-02-25T14:06:47.487Z,4.46
2023-02-25T14:09:29.847Z,4.65
2023-02-25T14:12:13.020Z,4.74
2023-02-25T14:15:14.468Z,4.49
2023-02-25T14:18:00.774Z,4.36
2023-02-25T14:20:41.851Z,4.17
2023-02-25T14:23:16.866Z,3.91
2023-02-25T14:25:58.206Z,3.71
2023-02-25T14:28:34.653Z,3.58
2023-02-25T14:31:14.360Z,3.48
2023-02-25T14:34:11.877Z,3.50
2023-02-25T14:37:05.096Z,3.47
2023-02-25T14:39:54.777Z,3.51
2023-02-25T14:42:36.639Z,3.43
2023-02-25T14:45:18.433Z,3.30
2023-02-25T14:47:53.169Z,3.22
2023-02-25T14:50:30.788Z,3.24
2023-02-25T14:53:11.471Z,3.31
2023-02-25T14:56:11.383Z,3.43
2023-02-25T14:59:04.139Z,3.68
2023-02-25T15:01:47.234Z,4.20
2023-02-25T15:04:50.017Z,4.62
2023-02-25T15:07:44.742Z,5.02
2023-02-25T15:10:21.676Z,4.95
2023-02-25T15:13:03.629Z,4.83
2023-02-25T15:15:54.380Z,4.71
2023-02-25T15:18:42.968Z,4.58
2023-02-25T15:21:46.816Z,4.42
2023-02-25T15:24:43.508Z,4.16
2023-02-25T15:27:45.889Z,4.01
2023-02-25T15:30:18.164Z,3.93
2023-02-25T15:33:09.443Z,3.92
2023-02-25T15:35:56.131Z,3.91
2023-02-25T15:38:42.632Z,3.88
2023-02-25T15:41:46.430Z,3.78
2023-02-25T15:44:37.371Z,3.66
2023-02-25T15:47:37.739Z,3.58
2023-02-25T15:50:09.963Z,3.39
2023-02-25T15:52:55.858Z,3.32
2023-02-25T15:55:44.053Z,3.23
2023-02-25T15:58:47.725Z,3.13
2023-02-25T16:01:42.850Z,2.98
2023-02-25T16:04:47.904Z,2.79
2023-02-25T16:07:19.676Z,2.64
2023-02-25T16:09:54.006Z,2.60
2023-02-25T16:12:24.664Z,2.56
2023-02-25T16:14:59.870Z,2.53
2023-02-25T16:17:33.889Z,2.47
2023-02-25T16:20:17.111Z,2.43
2023-02-25T16:22:49.027Z,2.37
2023-02-25T16:25:22.298Z,2.31
2023-02-25T16:27:58.228Z,2.25
2023-02-25T16:30:40.294Z,2.24
2023-02-25T16:33:20.609Z,2.20
2023-02-25T16:36:02.641Z,2.25
2023-02-25T16:38:44.871Z,2.26
2023-02-25T16:41:15.345Z,2.22
2023-02-25T16:43:46.615Z,2.21
2023-02-25T16:46:23.370Z,2.18
2023-02-25T16:48:56.226Z,2.18
2023-02-25T16:51:30.190Z,2.16
2023-02-25T16:54:02.335Z,2.16
2023-02-25T16:56:33.575Z,2.12
2023-02-25T16:59:09.003Z,2.15
2023-02-25T17:01:42.138Z,2.15
2023-02-25T17:04:18.001Z,2.13
2023-02-25T17:06:48.578Z,2.15
2023-02-25T17:09:26.492Z,2.16
2023-02-25T17:11:57.988Z,2.21
2023-02-25T17:14:28.330Z,2.18
2023-02-25T17:17:01.577Z,2.23
2023-02-25T17:19:32.024Z,2.23
2023-02-25T17:22:04.495Z,2.23
2023-02-25T17:24:36.064Z,2.28
2023-02-25T17:27:06.200Z,2.22
2023-02-25T17:29:37.936Z,2.17
2023-02-25T17:32:23.687Z,2.26
2023-02-25T17:34:56.581Z,2.27
2023-02-25T17:37:29.022Z,2.18
2023-02-25T17:39:59.496Z,2.20
2023-02-25T17:42:34.409Z,2.25
2023-02-25T17:45:07.421Z,2.23
2023-02-25T17:47:40.194Z,2.25
2023-02-25T17:50:23.152Z,2.28
2023-02-25T17:52:53.351Z,2.33
2023-02-25T17:55:26.516Z,2.33
2023-02-25T17:58:00.445Z,2.35
2023-02-25T18:00:32.617Z,2.39
2023-02-25T18:03:22.484Z,2.36
2023-02-25T18:05:54.230Z,2.30
2023-02-25T18:08:25.976Z,2.31
2023-02-25T18:10:58.257Z,2.30
2023-02-25T18:13:33.898Z,2.32
2023-02-25T18:16:33.770Z,2.36
2023-02-25T18:19:12.048Z,2.35
2023-02-25T18:21:45.381Z,2.29
2023-02-25T18:24:26.680Z,2.27
2023-02-25T18:27:11.458Z,2.28
2023-02-25T18:29:41.495Z,2.26
2023-02-25T18:32:12.843Z,2.26
2023-02-25T18:34:45.837Z,2.24
2023-02-25T18:37:18.215Z,2.28
2023-02-25T18:39:51.415Z,2.30
2023-02-25T18:42:21.882Z,2.28
2023-02-25T18:44:52.238Z,2.27
2023-02-25T18:47:22.387Z,2.22
2023-02-25T18:49:55.102Z,2.15
2023-02-25T18:52:26.715Z,2.05
2023-02-25T18:54:56.813Z,1.87
2023-02-25T18:57:29.163Z,1.80
2023-02-25T18:59:59.257Z,1.76
2023-02-25T19:02:32.711Z,1.66
2023-02-25T19:05:06.958Z,1.61
2023-02-25T19:07:37.932Z,1.60
2023-02-25T19:10:09.862Z,1.55
2023-02-25T19:12:40.236Z,1.55
2023-02-25T19:15:15.037Z,1.56
2023-02-25T19:17:46.316Z,1.59
2023-02-25T19:20:20.941Z,1.58
2023-02-25T19:22:52.654Z,1.50
2023-02-25T19:25:25.727Z,1.55
2023-02-25T19:27:56.743Z,1.53
2023-02-25T19:30:29.303Z,1.59
2023-02-25T19:33:03.509Z,1.53
2023-02-25T19:35:38.867Z,1.53
2023-02-25T19:38:10.318Z,1.50
2023-02-25T19:40:40.546Z,1.52
2023-02-25T19:43:10.631Z,1.57
2023-02-25T19:45:40.675Z,1.61
2023-02-25T19:48:11.467Z,1.60
2023-02-25T19:50:45.337Z,1.61
2023-02-25T19:53:15.424Z,1.56
2023-02-25T19:55:46.176Z,1.57
2023-02-25T19:58:16.387Z,1.56
2023-02-25T20:00:46.998Z,1.51
2023-02-25T20:03:17.773Z,1.47
2023-02-25T20:05:50.472Z,1.48
2023-02-25T20:08:20.819Z,1.48
2023-02-25T20:10:50.899Z,1.48
2023-02-25T20:13:21.414Z,1.49
2023-02-25T20:15:51.507Z,1.46
2023-02-25T20:18:21.582Z,1.52
2023-02-25T20:20:54.255Z,1.53
2023-02-25T20:23:24.327Z,1.50
2023-02-25T20:25:54.363Z,1.49
2023-02-25T20:28:24.613Z,1.49
2023-02-25T20:30:54.713Z,1.48
2023-02-25T20:33:25.785Z,1.49
2023-02-25T20:35:58.960Z,1.55
2023-02-25T20:38:33.766Z,1.56
2023-02-25T20:41:04.120Z,1.56
2023-02-25T20:43:34.382Z,1.56
2023-02-25T20:46:04.838Z,1.47
2023-02-25T20:48:35.977Z,1.49
2023-02-25T20:51:09.725Z,1.50
2023-02-25T20:53:41.023Z,1.47
2023-02-25T20:56:13.545Z,1.49
2023-02-25T20:58:43.659Z,1.45
2023-02-25T21:01:13.783Z,1.45
2023-02-25T21:03:43.903Z,1.48
2023-02-25T21:06:17.910Z,1.48
2023-02-25T21:08:48.367Z,1.51
2023-02-25T21:11:18.447Z,1.48
2023-02-25T21:13:49.343Z,1.50
2023-02-25T21:16:19.628Z,1.56
2023-02-25T21:18:50.756Z,1.53
2023-02-25T21:21:26.901Z,1.56
2023-02-25T21:23:57.027Z,1.55
2023-02-25T21:26:27.080Z,1.48
2023-02-25T21:28:57.132Z,1.49
2023-02-25T21:31:27.294Z,1.48
2023-02-25T21:33:57.645Z,1.53
2023-02-25T21:36:30.383Z,1.49
2023-02-25T21:39:00.462Z,1.42
2023-02-25T21:41:30.575Z,1.40
2023-02-25T21:44:00.611Z,1.41
2023-02-25T21:46:31.538Z,1.38
2023-02-25T21:49:01.677Z,1.40
2023-02-25T21:51:34.390Z,1.35
2023-02-25T21:54:05.254Z,1.38
2023-02-25T21:56:35.866Z,1.39
2023-02-25T21:59:08.219Z,1.36
2023-02-25T22:01:40.603Z,1.35
2023-02-25T22:04:11.430Z,1.37
2023-02-25T22:06:47.181Z,1.35
2023-02-25T22:09:18.126Z,1.36
2023-02-25T22:11:48.409Z,1.33
2023-02-25T22:14:18.469Z,1.37
2023-02-25T22:16:48.631Z,1.38
2023-02-25T22:19:18.763Z,1.26
2023-02-25T22:21:51.463Z,1.29
2023-02-25T22:24:21.508Z,1.27
2023-02-25T22:26:52.216Z,1.28
2023-02-25T22:29:22.305Z,1.29
2023-02-25T22:31:52.585Z,1.29
2023-02-25T22:34:22.683Z,1.28
2023-02-25T22:36:55.418Z,1.26
2023-02-25T22:39:25.540Z,1.21
2023-02-25T22:41:55.706Z,1.20
2023-02-25T22:44:25.828Z,1.23
2023-02-25T22:46:56.042Z,1.16
2023-02-25T22:49:26.448Z,1.20
2023-02-25T22:51:59.136Z,1.18
2023-02-25T22:54:29.230Z,1.18
2023-02-25T22:56:59.257Z,1.20
2023-02-25T22:59:29.523Z,1.25
2023-02-25T23:01:59.683Z,1.22
2023-02-25T23:04:29.981Z,1.22
2023-02-25T23:07:02.686Z,1.18
2023-02-25T23:09:32.805Z,1.17
2023-02-25T23:12:02.908Z,1.21
2023-02-25T23:14:35.105Z,1.21
2023-02-25T23:17:05.559Z,1.19
2023-02-25T23:19:35.676Z,1.21
2023-02-25T23:22:09.743Z,1.18
2023-02-25T23:24:39.921Z,1.12
2023-02-25T23:27:10.002Z,1.12
2023-02-25T23:29:40.124Z,1.02
2023-02-25T23:32:10.768Z,0.96
2023-02-25T23:34:41.084Z,0.94
2023-02-25T23:37:15.255Z,0.91
2023-02-25T23:39:46.155Z,0.89
2023-02-25T23:42:16.251Z,0.78
2023-02-25T23:44:46.330Z,0.82
2023-02-25T23:47:17.596Z,0.81
2023-02-25T23:49:47.877Z,0.77
2023-02-25T23:52:20.630Z,0.79
2023-02-25T23:54:50.729Z,0.81
2023-02-25T23:57:20.910Z,0.80
2023-02-25T23:59:51.068Z,0.78
